Weather at C David Campbell Field Corsicana Municipal Airport

Public forecast

Using degrees Fahrenheit for public forecast. Weather courtesy of forecast.io.

Current aviation weather report (METAR) for C David Campbell Field Corsicana Municipal Airport

Retrieved 2021/08/04 03:53 UTC (58 minutes ago):

KCRS 040353Z AUTO 00000KT 7SM CLR 26/22 A3001 RMK AO2 SLP155 T02560217

Closest aviation forecast (TAF) to C David Campbell Field Corsicana Municipal Airport

Closest forecast is Waco Regional Airport, 49.2 nm (91.1 km) WSW. Retrieved 2021-08-04 00:28 UTC (4 hours ago):

TAF KACT 032326Z 0400/0424 05007KT P6SM SCT070 FM040900 09005KT 6SM HZ FEW250 FM041800 11005KT P6SM FEW050